Time;durP1;ratioP1;P1;durP2;ratioP2;P2;SDS_P1;SDS_P2;PMS_P1;PMS_P2;Temp;Humidity;BMP_temperature;BMP_pressure;BME280_temperature;BME280_humidity;BME280_pressure;Samples;Min_cycle;Max_cycle;Signal;HPM_P1;HPM_P2
2022/01/16 00:01:23;;;;;;;12.90;4.60;;;25.20;99.90;;;;;;4994694;28;20025;-74
2022/01/16 00:06:37;;;;;;;8.00;4.90;;;25.10;99.90;;;;;;4994548;28;20034;-80
2022/01/16 00:09:05;;;;;;;9.35;4.30;;;25.20;99.90;;;;;;4994575;28;20026;-76
2022/01/16 00:11:33;;;;;;;8.55;4.85;;;25.10;99.90;;;;;;4994320;28;20109;-74
2022/01/16 00:14:02;;;;;;;11.70;4.85;;;25.30;99.90;;;;;;4994750;28;20039;-75
2022/01/16 00:16:30;;;;;;;11.80;5.00;;;25.50;99.90;;;;;;4994327;28;20108;-75
2022/01/16 00:18:58;;;;;;;10.73;4.28;;;25.60;99.90;;;;;;4992653;28;20566;-74
2022/01/16 00:21:31;;;;;;;9.50;5.40;;;25.60;99.90;;;;;;4992416;28;20049;-75
2022/01/16 00:24:00;;;;;;;12.63;4.70;;;25.60;99.90;;;;;;4992805;28;20065;-74
2022/01/16 00:26:27;;;;;;;15.30;5.18;;;25.70;99.90;;;;;;4994267;28;20019;-75
2022/01/16 00:28:55;;;;;;;14.13;5.60;;;25.70;99.90;;;;;;4994291;28;20030;-75
2022/01/16 00:31:24;;;;;;;8.90;5.00;;;25.50;99.90;;;;;;4993970;28;20885;-75
2022/01/16 00:33:51;;;;;;;12.52;5.72;;;25.20;99.90;;;;;;4994093;28;20038;-75
2022/01/16 00:36:20;;;;;;;11.82;5.47;;;24.90;99.90;;;;;;4994156;28;20026;-76
2022/01/16 00:38:53;;;;;;;11.77;5.80;;;24.80;99.90;;;;;;4992936;28;20030;-74
2022/01/16 00:41:22;;;;;;;10.75;6.05;;;24.70;99.90;;;;;;4994022;28;20533;-75
2022/01/16 00:43:51;;;;;;;10.35;5.90;;;24.60;99.90;;;;;;4993957;28;20092;-74
2022/01/16 00:46:19;;;;;;;18.15;6.68;;;24.60;99.90;;;;;;4994238;28;20065;-75
2022/01/16 00:48:47;;;;;;;11.02;5.97;;;24.60;99.90;;;;;;4993642;28;20023;-75
2022/01/16 00:51:16;;;;;;;11.48;6.15;;;24.80;99.90;;;;;;4993839;28;20019;-79
2022/01/16 00:53:44;;;;;;;11.68;5.30;;;24.90;99.90;;;;;;4994107;28;20038;-75
2022/01/16 00:56:12;;;;;;;15.05;6.22;;;25.00;99.90;;;;;;4993881;28;20023;-75
2022/01/16 00:58:40;;;;;;;17.38;5.90;;;25.00;99.90;;;;;;4993926;28;20446;-75
2022/01/16 01:01:09;;;;;;;12.07;6.35;;;25.20;99.90;;;;;;4993682;28;20475;-73
2022/01/16 01:03:36;;;;;;;17.77;6.57;;;25.40;99.90;;;;;;4993324;28;20039;-75
2022/01/16 01:06:04;;;;;;;13.38;6.60;;;25.50;99.90;;;;;;4993775;28;20019;-76
2022/01/16 01:08:31;;;;;;;13.70;6.85;;;25.90;99.90;;;;;;4993992;28;20386;-76
2022/01/16 01:11:02;;;;;;;14.65;6.28;;;25.90;99.90;;;;;;4994074;28;20030;-75
2022/01/16 01:13:33;;;;;;;13.85;6.13;;;26.00;99.90;;;;;;4976438;28;20038;-75
2022/01/16 01:16:04;;;;;;;18.90;6.28;;;26.20;99.90;;;;;;4983451;28;20023;-77
2022/01/16 01:18:33;;;;;;;17.13;5.90;;;26.00;99.90;;;;;;4981520;28;20501;-75
2022/01/16 01:21:04;;;;;;;13.48;6.47;;;25.90;99.90;;;;;;4981565;28;20041;-75
2022/01/16 01:23:31;;;;;;;14.88;5.95;;;26.00;99.90;;;;;;4981446;28;20047;-75
2022/01/16 01:25:59;;;;;;;10.60;4.85;;;25.90;99.90;;;;;;4983115;28;20030;-76
2022/01/16 01:28:26;;;;;;;13.82;6.40;;;25.80;99.90;;;;;;4980926;28;20023;-76
2022/01/16 01:30:55;;;;;;;14.93;5.65;;;26.10;99.90;;;;;;4981682;28;20018;-75
2022/01/16 01:33:24;;;;;;;10.98;5.18;;;26.10;99.90;;;;;;4980973;28;20084;-76
2022/01/16 01:35:51;;;;;;;12.68;6.00;;;26.30;99.90;;;;;;4989013;28;20026;-74
2022/01/16 01:38:21;;;;;;;23.08;5.60;;;26.60;99.90;;;;;;4981503;28;20018;-75
2022/01/16 01:40:50;;;;;;;9.80;4.82;;;26.60;99.90;;;;;;4981353;28;20035;-76
2022/01/16 01:51:31;;;;;;;9.43;5.70;;;26.20;99.90;;;;;;4982770;28;20155;-75
2022/01/16 01:54:00;;;;;;;10.23;5.00;;;26.30;99.90;;;;;;4982166;28;20034;-74
2022/01/16 01:56:28;;;;;;;9.65;5.30;;;26.30;99.90;;;;;;4980663;28;20487;-77
2022/01/16 01:58:59;;;;;;;10.10;6.10;;;26.40;99.90;;;;;;4982317;28;20037;-77
2022/01/16 02:01:28;;;;;;;20.15;5.18;;;26.50;99.90;;;;;;4983630;28;20015;-78
2022/01/16 02:03:56;;;;;;;12.45;5.85;;;26.80;99.90;;;;;;4985021;28;20051;-76
2022/01/16 02:06:25;;;;;;;10.90;4.88;;;27.00;99.90;;;;;;4984009;28;20533;-75
2022/01/16 02:08:57;;;;;;;8.05;4.43;;;26.90;99.90;;;;;;4985772;28;20122;-75
2022/01/16 02:11:28;;;;;;;12.13;5.13;;;26.50;99.90;;;;;;4993887;28;20386;-75
2022/01/16 02:34:30;;;;;;;10.70;4.88;;;26.20;99.90;;;;;;4990104;28;19917;-75
2022/01/16 02:35:51;;;;;;;14.13;5.43;;;26.10;99.90;;;;;;4975456;28;20047;-75
2022/01/16 02:38:18;;;;;;;15.82;5.38;;;26.10;99.90;;;;;;4976631;28;20097;-76
2022/01/16 02:40:57;;;;;;;10.95;5.13;;;26.10;99.90;;;;;;4976635;28;20015;-75
2022/01/16 02:43:31;;;;;;;12.68;3.95;;;26.30;99.90;;;;;;4984154;28;20085;-77
2022/01/16 02:48:48;;;;;;;9.30;4.53;;;26.80;99.90;;;;;;4986753;28;20026;-75
2022/01/16 02:51:21;;;;;;;9.18;4.57;;;26.70;99.90;;;;;;4985548;28;20053;-76
2022/01/16 02:53:50;;;;;;;8.73;4.60;;;26.60;99.90;;;;;;4984625;28;20031;-75
2022/01/16 02:56:19;;;;;;;10.18;3.70;;;26.40;99.90;;;;;;4985496;28;20034;-76
2022/01/16 02:58:48;;;;;;;10.57;3.88;;;26.50;99.90;;;;;;4986541;28;20487;-75
2022/01/16 03:01:15;;;;;;;11.13;4.25;;;26.20;99.90;;;;;;4991881;28;20502;-78
2022/01/16 03:03:43;;;;;;;14.18;3.78;;;26.10;99.90;;;;;;4984724;28;20018;-75
2022/01/16 03:06:11;;;;;;;6.55;3.78;;;26.40;99.90;;;;;;4984557;28;20027;-75
2022/01/16 03:08:38;;;;;;;14.80;4.82;;;26.90;99.90;;;;;;4985256;28;20387;-76
2022/01/16 03:11:21;;;;;;;6.80;3.90;;;27.20;99.90;;;;;;4987352;28;20022;-77
2022/01/16 03:13:49;;;;;;;6.82;4.03;;;27.30;99.90;;;;;;4985831;28;20038;-76
2022/01/16 03:16:19;;;;;;;10.85;3.30;;;27.00;99.90;;;;;;4985100;28;20019;-76
2022/01/16 03:24:19;;;;;;;6.57;3.55;;;27.30;99.90;;;;;;4986431;28;20052;-75
2022/01/16 03:26:46;;;;;;;10.40;3.72;;;27.20;99.90;;;;;;4985995;28;20069;-76
2022/01/16 03:29:14;;;;;;;8.05;3.28;;;27.00;99.90;;;;;;4984545;28;20019;-76
2022/01/16 03:31:41;;;;;;;10.32;3.45;;;26.90;99.90;;;;;;4984329;28;20499;-75
2022/01/16 03:34:08;;;;;;;7.57;3.83;;;27.10;99.90;;;;;;4985790;28;20026;-75
2022/01/16 03:36:36;;;;;;;5.95;2.80;;;27.20;99.90;;;;;;4984553;28;20053;-75
2022/01/16 03:39:04;;;;;;;9.45;4.35;;;27.30;99.90;;;;;;4986037;28;20042;-75
2022/01/16 03:41:34;;;;;;;9.63;2.78;;;27.30;99.90;;;;;;4983639;28;20025;-76
2022/01/16 03:44:02;;;;;;;9.13;3.53;;;27.00;99.90;;;;;;4995113;28;20383;-75
2022/01/16 03:46:35;;;;;;;9.68;3.90;;;26.90;99.90;;;;;;4975692;28;20491;-75
2022/01/16 03:49:14;;;;;;;9.30;3.90;;;27.30;99.90;;;;;;4974072;28;20117;-76
2022/01/16 03:51:44;;;;;;;9.98;3.67;;;27.50;99.90;;;;;;4973886;28;20015;-75
2022/01/16 03:54:13;;;;;;;9.65;4.05;;;27.50;99.90;;;;;;4974536;28;20033;-77
2022/01/16 03:56:41;;;;;;;8.20;3.47;;;27.70;99.90;;;;;;4974879;28;20023;-75
2022/01/16 03:59:09;;;;;;;10.73;3.45;;;27.60;99.90;;;;;;4974392;28;20027;-76
2022/01/16 04:01:37;;;;;;;9.88;4.10;;;27.50;99.90;;;;;;4972051;28;20031;-77
2022/01/16 04:04:05;;;;;;;10.10;2.83;;;27.20;99.90;;;;;;4972419;28;20031;-75
2022/01/16 04:06:33;;;;;;;11.75;3.92;;;27.30;99.90;;;;;;4972899;28;20550;-75
2022/01/16 04:09:01;;;;;;;13.88;3.67;;;27.50;99.90;;;;;;4972347;28;20030;-76
2022/01/16 04:11:30;;;;;;;7.32;3.78;;;27.80;99.90;;;;;;4972843;28;20029;-75
2022/01/16 04:14:09;;;;;;;9.10;3.35;;;27.80;99.90;;;;;;4971356;28;20035;-75
2022/01/16 04:16:38;;;;;;;9.38;3.25;;;27.60;99.90;;;;;;4974642;28;20027;-82
2022/01/16 04:19:05;;;;;;;15.68;4.53;;;27.30;99.90;;;;;;4973821;28;20129;-74
2022/01/16 04:21:33;;;;;;;11.75;4.10;;;27.00;99.90;;;;;;4973993;28;20019;-76
2022/01/16 04:24:00;;;;;;;10.75;4.18;;;27.20;99.90;;;;;;4974694;28;20030;-76
2022/01/16 04:26:28;;;;;;;12.05;3.50;;;27.40;99.90;;;;;;4974062;28;20493;-75
2022/01/16 04:28:55;;;;;;;7.20;2.95;;;27.10;99.90;;;;;;4975086;28;20110;-76
2022/01/16 04:31:23;;;;;;;8.25;3.30;;;27.20;99.90;;;;;;4974204;28;20094;-76
2022/01/16 04:33:50;;;;;;;7.03;3.00;;;27.60;99.90;;;;;;4981578;28;20093;-75
2022/01/16 04:36:18;;;;;;;7.20;3.50;;;27.60;99.90;;;;;;4982665;28;20022;-78
2022/01/16 04:38:48;;;;;;;14.90;3.83;;;27.60;99.90;;;;;;4983845;28;20022;-75
2022/01/16 04:44:03;;;;;;;13.68;3.53;;;27.50;99.90;;;;;;4974101;28;20037;-78
2022/01/16 04:46:32;;;;;;;11.02;3.65;;;27.80;99.90;;;;;;4974300;28;20431;-75
2022/01/16 04:49:02;;;;;;;10.18;3.85;;;27.70;99.90;;;;;;4973573;28;20483;-76
2022/01/16 04:51:32;;;;;;;7.75;3.30;;;27.70;99.90;;;;;;4974165;28;20057;-73
2022/01/16 04:53:59;;;;;;;9.15;3.40;;;27.80;99.90;;;;;;4971664;28;20039;-80
2022/01/16 04:56:27;;;;;;;9.70;3.65;;;27.60;99.90;;;;;;4972202;28;20027;-76
2022/01/16 04:58:54;;;;;;;8.85;3.30;;;27.80;99.90;;;;;;4972214;28;20052;-78
2022/01/16 05:01:23;;;;;;;12.65;3.33;;;27.90;99.90;;;;;;4971702;28;20030;-77
2022/01/16 05:03:50;;;;;;;6.90;2.70;;;27.90;99.90;;;;;;4972294;28;20109;-76
2022/01/16 05:06:21;;;;;;;10.07;3.55;;;28.10;99.90;;;;;;4972408;28;20019;-78
2022/01/16 05:08:48;;;;;;;11.07;2.88;;;28.10;99.90;;;;;;4974333;28;20097;-76
2022/01/16 05:11:21;;;;;;;8.05;3.58;;;28.20;99.90;;;;;;4979612;28;20027;-75
2022/01/16 05:19:05;;;;;;;8.25;3.20;;;27.30;99.90;;;;;;4992476;28;20089;-75
2022/01/16 05:21:33;;;;;;;11.60;3.30;;;27.50;99.90;;;;;;4991779;28;20011;-74
2022/01/16 05:24:03;;;;;;;7.18;2.92;;;27.60;99.90;;;;;;4991638;28;20105;-76
2022/01/16 05:26:31;;;;;;;6.28;2.90;;;27.40;99.90;;;;;;4991590;28;20030;-76
2022/01/16 05:28:58;;;;;;;7.95;2.97;;;27.20;99.90;;;;;;4991477;28;20030;-76
2022/01/16 05:31:25;;;;;;;7.68;3.53;;;27.00;99.90;;;;;;4991791;28;20029;-79
2022/01/16 05:33:53;;;;;;;7.20;3.03;;;27.10;99.90;;;;;;4993236;28;20036;-79
2022/01/16 05:36:22;;;;;;;9.65;3.22;;;27.10;99.90;;;;;;4995161;28;20019;-76
2022/01/16 05:38:50;;;;;;;9.40;2.53;;;27.10;99.90;;;;;;4995401;28;20446;-75
2022/01/16 05:41:18;;;;;;;8.13;2.78;;;27.00;99.90;;;;;;4997407;28;20470;-77
2022/01/16 05:43:46;;;;;;;8.32;3.35;;;26.80;99.90;;;;;;4997132;28;20022;-75
2022/01/16 05:46:15;;;;;;;8.82;3.33;;;26.70;99.90;;;;;;4997196;28;20479;-75
2022/01/16 05:48:42;;;;;;;12.15;4.50;;;26.60;99.90;;;;;;4997141;28;20036;-76
2022/01/16 05:51:10;;;;;;;11.88;3.60;;;26.60;99.90;;;;;;4996993;28;20030;-75
2022/01/16 05:53:37;;;;;;;9.77;3.53;;;26.80;99.90;;;;;;4997078;28;20037;-78
2022/01/16 05:56:05;;;;;;;15.57;4.10;;;26.80;99.90;;;;;;4996911;28;20113;-75
2022/01/16 05:58:33;;;;;;;10.57;3.20;;;26.40;99.90;;;;;;4996957;28;20027;-75
2022/01/16 06:01:00;;;;;;;9.70;3.78;;;26.40;99.90;;;;;;4995786;28;20022;-75
2022/01/16 06:03:27;;;;;;;12.30;3.70;;;26.30;99.90;;;;;;4996764;28;20030;-75
2022/01/16 06:05:55;;;;;;;16.63;4.13;;;26.30;99.90;;;;;;4996944;28;20023;-75
2022/01/16 06:08:22;;;;;;;20.30;2.75;;;26.30;99.90;;;;;;4996756;28;20399;-77
2022/01/16 06:10:49;;;;;;;10.30;4.05;;;26.20;99.90;;;;;;4996703;28;20030;-76
2022/01/16 06:13:22;;;;;;;9.73;3.45;;;26.10;99.90;;;;;;4996597;28;20467;-76
2022/01/16 06:15:50;;;;;;;11.32;4.50;;;26.10;99.90;;;;;;4996611;28;20106;-76
2022/01/16 06:18:17;;;;;;;12.13;3.83;;;26.00;99.90;;;;;;4996667;28;20152;-76
2022/01/16 06:20:47;;;;;;;12.80;3.83;;;26.00;99.90;;;;;;4996545;28;20022;-76
2022/01/16 06:23:16;;;;;;;9.27;3.65;;;26.10;99.90;;;;;;4996132;28;20064;-76
2022/01/16 06:25:44;;;;;;;11.05;3.55;;;26.30;99.90;;;;;;4996502;28;20467;-77
2022/01/16 06:28:12;;;;;;;11.23;3.00;;;26.10;99.90;;;;;;4996825;28;20026;-76
2022/01/16 06:30:40;;;;;;;9.50;4.18;;;26.30;99.90;;;;;;4995026;28;20022;-75
2022/01/16 06:33:09;;;;;;;11.30;3.33;;;26.50;99.90;;;;;;4996418;28;20037;-76
2022/01/16 06:35:37;;;;;;;13.80;3.70;;;26.70;99.90;;;;;;4996420;28;20388;-77
2022/01/16 06:38:05;;;;;;;14.70;4.07;;;26.70;99.90;;;;;;4996156;28;20562;-76
2022/01/16 06:40:33;;;;;;;13.02;3.92;;;26.20;99.90;;;;;;4996133;28;20031;-76
2022/01/16 06:43:01;;;;;;;19.67;4.20;;;26.00;99.90;;;;;;4996066;28;20101;-77
2022/01/16 06:45:29;;;;;;;14.20;3.70;;;25.60;99.90;;;;;;4995592;28;20375;-77
2022/01/16 06:48:02;;;;;;;13.65;4.03;;;25.40;99.90;;;;;;4996033;28;20022;-77
2022/01/16 06:50:30;;;;;;;12.65;3.53;;;25.20;99.90;;;;;;4996063;28;20122;-76
2022/01/16 06:52:57;;;;;;;11.77;4.35;;;25.10;99.90;;;;;;4995898;28;20041;-76
2022/01/16 06:55:25;;;;;;;15.65;3.67;;;25.00;99.90;;;;;;4995839;28;20125;-76
2022/01/16 06:57:56;;;;;;;10.55;3.58;;;25.00;99.90;;;;;;4995894;28;20025;-77
2022/01/16 07:00:23;;;;;;;14.23;4.13;;;24.80;99.90;;;;;;4995800;28;20434;-78
2022/01/16 07:02:51;;;;;;;14.90;3.85;;;24.80;99.90;;;;;;4995550;28;20559;-76
2022/01/16 07:05:19;;;;;;;16.00;4.82;;;24.90;99.90;;;;;;4995784;28;20034;-75
2022/01/16 07:07:47;;;;;;;14.38;4.30;;;25.00;99.90;;;;;;4995709;28;20101;-75
2022/01/16 07:10:14;;;;;;;17.10;3.42;;;25.00;99.90;;;;;;4995600;28;20036;-76
2022/01/16 07:12:42;;;;;;;10.70;3.53;;;24.90;99.90;;;;;;4995694;28;20029;-72
2022/01/16 07:15:10;;;;;;;14.70;4.43;;;24.90;99.90;;;;;;4995437;28;20069;-74
2022/01/16 07:17:38;;;;;;;10.38;3.50;;;25.10;99.90;;;;;;4995497;28;20105;-75
2022/01/16 07:20:06;;;;;;;10.00;2.55;;;25.10;99.90;;;;;;4995497;28;20069;-77
2022/01/16 07:22:34;;;;;;;14.77;4.13;;;25.10;99.90;;;;;;4995224;28;20078;-75
2022/01/16 07:25:02;;;;;;;12.30;2.83;;;25.00;99.90;;;;;;4995458;28;20022;-74
2022/01/16 07:27:29;;;;;;;11.75;3.53;;;25.10;99.90;;;;;;4995249;28;20430;-75
2022/01/16 07:29:58;;;;;;;14.52;4.00;;;25.00;99.90;;;;;;4995291;28;20088;-76
2022/01/16 07:32:26;;;;;;;11.25;3.65;;;25.30;99.90;;;;;;4995261;28;20019;-76
2022/01/16 07:34:54;;;;;;;13.50;4.38;;;25.70;99.90;;;;;;4995084;28;20034;-75
2022/01/16 07:37:21;;;;;;;8.48;2.67;;;25.40;99.90;;;;;;4995065;28;20023;-76
2022/01/16 07:39:49;;;;;;;14.32;4.50;;;25.20;99.90;;;;;;4995159;28;20088;-75
2022/01/16 07:42:17;;;;;;;10.95;3.50;;;25.20;99.90;;;;;;4993857;28;20030;-75
2022/01/16 07:44:45;;;;;;;10.55;3.13;;;25.00;99.90;;;;;;4994881;28;20023;-75
2022/01/16 07:47:12;;;;;;;14.52;3.03;;;24.80;99.90;;;;;;4994118;28;20086;-74
2022/01/16 07:49:40;;;;;;;12.95;3.55;;;24.60;99.90;;;;;;4993989;28;20426;-75
2022/01/16 07:52:08;;;;;;;10.15;3.15;;;24.40;99.90;;;;;;4994150;28;20033;-74
2022/01/16 07:54:36;;;;;;;11.13;3.35;;;24.40;99.90;;;;;;4994200;28;20035;-73
2022/01/16 07:57:04;;;;;;;12.20;3.75;;;24.40;99.90;;;;;;4996002;28;20078;-74
2022/01/16 07:59:32;;;;;;;15.02;3.58;;;24.40;99.90;;;;;;4994740;28;20026;-75
2022/01/16 08:02:00;;;;;;;14.15;3.45;;;24.40;99.90;;;;;;4994475;28;20086;-76
2022/01/16 08:04:27;;;;;;;11.93;3.67;;;24.40;99.90;;;;;;4994787;28;20549;-76
2022/01/16 08:06:55;;;;;;;12.77;3.47;;;24.40;99.90;;;;;;4996244;28;20072;-76
2022/01/16 08:09:23;;;;;;;13.98;3.50;;;24.60;99.90;;;;;;4994661;28;20114;-76
2022/01/16 08:11:51;;;;;;;10.98;4.18;;;24.70;99.90;;;;;;4989705;28;20031;-74
2022/01/16 08:14:19;;;;;;;11.38;4.20;;;24.80;99.90;;;;;;4974912;28;20155;-75
2022/01/16 08:16:47;;;;;;;12.50;3.80;;;24.80;99.90;;;;;;4975630;28;20501;-75
2022/01/16 08:19:14;;;;;;;11.88;3.78;;;24.70;99.90;;;;;;4982868;28;20030;-75
2022/01/16 08:21:42;;;;;;;10.30;3.33;;;24.50;99.90;;;;;;4993451;28;20031;-75
2022/01/16 08:24:10;;;;;;;15.57;3.30;;;24.30;99.90;;;;;;4993564;28;20038;-74
2022/01/16 08:26:37;;;;;;;17.70;4.03;;;24.20;99.90;;;;;;4991760;28;20072;-74
2022/01/16 08:29:05;;;;;;;12.75;4.00;;;24.10;99.90;;;;;;4993001;28;20053;-76
2022/01/16 08:31:33;;;;;;;16.60;4.03;;;24.10;99.90;;;;;;4993173;28;20022;-76
2022/01/16 08:34:01;;;;;;;16.25;3.55;;;24.00;99.90;;;;;;4992209;28;20053;-75
2022/01/16 08:36:28;;;;;;;18.60;3.92;;;24.00;99.90;;;;;;4992822;28;20022;-76
2022/01/16 08:38:56;;;;;;;15.40;3.47;;;23.90;99.90;;;;;;4992180;28;20026;-76
2022/01/16 08:41:25;;;;;;;11.52;4.07;;;23.90;99.90;;;;;;4992638;28;20025;-74
2022/01/16 08:43:54;;;;;;;10.20;3.42;;;23.80;99.90;;;;;;4992750;28;20113;-76
2022/01/16 08:46:22;;;;;;;16.00;4.68;;;23.60;99.90;;;;;;4992806;28;20375;-74
2022/01/16 08:48:51;;;;;;;13.15;4.13;;;23.50;99.90;;;;;;4992722;28;20029;-74
2022/01/16 08:51:21;;;;;;;16.17;3.72;;;23.40;99.90;;;;;;4992637;28;20018;-74
2022/01/16 08:53:49;;;;;;;16.45;4.38;;;23.40;99.90;;;;;;4992840;28;20031;-74
2022/01/16 08:56:17;;;;;;;14.38;4.25;;;23.40;99.90;;;;;;4993269;28;20026;-76
2022/01/16 08:58:45;;;;;;;13.05;4.25;;;23.40;99.90;;;;;;4992003;28;20106;-76
2022/01/16 09:01:12;;;;;;;14.98;4.70;;;23.40;99.90;;;;;;4993097;28;20026;-75
2022/01/16 09:03:40;;;;;;;18.58;5.05;;;23.30;99.90;;;;;;4992866;28;20088;-76
2022/01/16 09:06:08;;;;;;;14.65;4.75;;;23.30;99.90;;;;;;4993112;28;20022;-76
2022/01/16 09:08:36;;;;;;;15.25;4.22;;;23.30;99.90;;;;;;4994586;28;20046;-75
2022/01/16 09:11:04;;;;;;;18.38;5.35;;;23.20;99.90;;;;;;4996217;28;20026;-76
2022/01/16 09:13:38;;;;;;;19.27;4.80;;;23.20;99.90;;;;;;4991849;28;20471;-77
2022/01/16 09:16:05;;;;;;;13.85;4.13;;;23.20;99.90;;;;;;4988225;28;20038;-76
2022/01/16 09:18:33;;;;;;;18.42;4.63;;;23.10;99.90;;;;;;4989205;28;20033;-75
2022/01/16 09:21:02;;;;;;;17.42;4.57;;;23.10;99.90;;;;;;4990586;28;20027;-76
2022/01/16 09:23:32;;;;;;;16.10;4.68;;;23.00;99.90;;;;;;4990721;28;20042;-76
2022/01/16 09:26:00;;;;;;;19.15;5.28;;;23.00;99.90;;;;;;4989540;28;20022;-75
2022/01/16 09:28:27;;;;;;;12.18;4.70;;;22.90;99.90;;;;;;4989850;28;20014;-76
2022/01/16 09:30:55;;;;;;;11.90;4.05;;;22.90;99.90;;;;;;4990246;28;20018;-75
2022/01/16 09:33:23;;;;;;;16.35;3.83;;;23.00;99.90;;;;;;4994780;28;20022;-76
2022/01/16 09:35:50;;;;;;;21.17;5.43;;;23.00;99.90;;;;;;4989930;28;20534;-76
2022/01/16 09:38:18;;;;;;;13.23;4.90;;;22.90;99.90;;;;;;4989407;28;20114;-75
2022/01/16 09:40:47;;;;;;;16.45;3.90;;;22.90;99.90;;;;;;4989172;28;20050;-75
2022/01/16 09:43:16;;;;;;;14.43;4.47;;;22.90;99.90;;;;;;4995396;28;20076;-76
2022/01/16 09:45:44;;;;;;;14.90;4.68;;;22.80;99.90;;;;;;4995978;28;20076;-75
2022/01/16 09:48:11;;;;;;;14.85;4.85;;;22.80;99.90;;;;;;4995755;28;20018;-76
2022/01/16 09:50:39;;;;;;;18.42;4.65;;;22.80;99.90;;;;;;4994781;28;20030;-75
2022/01/16 09:53:07;;;;;;;14.18;4.90;;;22.70;99.90;;;;;;4993882;28;20026;-76
2022/01/16 09:55:35;;;;;;;22.92;5.10;;;22.70;99.90;;;;;;4993713;28;20069;-75
2022/01/16 09:58:02;;;;;;;17.10;5.10;;;22.70;99.90;;;;;;4993692;28;20011;-75
2022/01/16 10:00:30;;;;;;;12.00;4.72;;;22.70;99.90;;;;;;4993746;28;20042;-76
2022/01/16 10:02:58;;;;;;;24.40;4.45;;;22.60;99.90;;;;;;4993385;28;20027;-76
2022/01/16 10:05:37;;;;;;;19.13;5.68;;;22.60;99.90;;;;;;4993586;28;20342;-76
2022/01/16 10:08:08;;;;;;;13.90;4.80;;;22.50;99.90;;;;;;4994705;28;20030;-74
2022/01/16 10:10:45;;;;;;;12.77;5.10;;;22.50;99.90;;;;;;4991963;28;20023;-74
2022/01/16 10:13:21;;;;;;;14.27;5.60;;;22.50;99.90;;;;;;4986616;28;20015;-75
2022/01/16 10:15:56;;;;;;;16.75;5.10;;;22.50;99.90;;;;;;4988600;28;20038;-74
2022/01/16 10:18:41;;;;;;;16.90;4.80;;;22.40;99.90;;;;;;4988489;28;20037;-74
2022/01/16 10:21:11;;;;;;;16.10;4.87;;;22.40;99.90;;;;;;4989491;28;20098;-74
2022/01/16 10:23:44;;;;;;;16.25;4.85;;;22.40;99.90;;;;;;4988477;28;20276;-74
2022/01/16 10:26:23;;;;;;;15.20;4.78;;;22.30;99.90;;;;;;4992190;28;20030;-74
2022/01/16 10:28:52;;;;;;;16.70;5.95;;;22.30;99.90;;;;;;4994654;28;20467;-74
2022/01/16 10:31:28;;;;;;;19.00;5.05;;;22.30;99.90;;;;;;4992876;28;20391;-74
2022/01/16 10:33:55;;;;;;;;;;;22.20;99.90;;;;;;4992636;28;20452;-74
2022/01/16 10:36:39;;;;;;;20.25;5.28;;;22.20;99.90;;;;;;4989531;28;19909;-75
2022/01/16 10:39:12;;;;;;;15.07;5.45;;;22.20;99.90;;;;;;4988765;28;20034;-74
2022/01/16 10:41:41;;;;;;;12.60;4.78;;;22.20;99.90;;;;;;4987897;28;20518;-75
2022/01/16 10:44:28;;;;;;;11.27;4.75;;;22.10;99.90;;;;;;4988128;28;20125;-75
2022/01/16 10:46:56;;;;;;;18.33;5.60;;;22.10;99.90;;;;;;4988999;28;20383;-75
2022/01/16 10:49:23;;;;;;;14.65;5.70;;;22.10;99.90;;;;;;4993333;28;20080;-74
2022/01/16 10:52:09;;;;;;;20.67;5.03;;;22.00;99.90;;;;;;4993182;28;20018;-74
2022/01/16 10:54:40;;;;;;;13.10;4.35;;;22.00;99.90;;;;;;4988393;28;20403;-74
2022/01/16 10:57:24;;;;;;;13.75;4.15;;;22.00;99.90;;;;;;4988082;28;20018;-75
2022/01/16 11:00:21;;;;;;;16.55;5.28;;;22.00;99.90;;;;;;4992594;28;20089;-74
2022/01/16 11:02:51;;;;;;;15.65;4.70;;;22.00;99.90;;;;;;4991797;28;20053;-74
2022/01/16 11:05:21;;;;;;;16.80;5.32;;;22.00;99.90;;;;;;4993361;28;20444;-74
2022/01/16 11:07:58;;;;;;;15.73;5.03;;;22.00;99.90;;;;;;4994258;28;20562;-75
2022/01/16 11:10:29;;;;;;;25.85;5.82;;;21.90;99.90;;;;;;4988905;28;20084;-75
2022/01/16 11:13:03;;;;;;;9.55;4.43;;;21.90;99.90;;;;;;4986482;28;20479;-76
2022/01/16 11:15:33;;;;;;;19.30;6.22;;;21.90;99.90;;;;;;4981135;28;20084;-75
2022/01/16 11:18:06;;;;;;;12.50;4.88;;;21.90;99.90;;;;;;4983381;28;20050;-74
2022/01/16 11:20:36;;;;;;;16.63;4.85;;;21.90;99.90;;;;;;4982901;28;20023;-75
2022/01/16 11:23:29;;;;;;;20.92;4.95;;;21.90;99.90;;;;;;4983134;28;20498;-74
2022/01/16 11:26:00;;;;;;;23.55;5.47;;;21.80;99.90;;;;;;4986046;28;20038;-74
2022/01/16 11:28:29;;;;;;;17.35;5.82;;;21.80;99.90;;;;;;4985623;28;20018;-77
2022/01/16 11:31:03;;;;;;;15.90;5.22;;;21.80;99.90;;;;;;4985412;28;20014;-73
2022/01/16 11:33:33;;;;;;;13.63;4.50;;;21.80;99.90;;;;;;4985976;28;20014;-76
2022/01/16 11:36:14;;;;;;;20.88;4.53;;;21.80;99.90;;;;;;4985787;28;20053;-75
2022/01/16 11:38:49;;;;;;;16.00;5.60;;;21.70;99.90;;;;;;4983969;28;20106;-76
2022/01/16 11:41:25;;;;;;;15.80;5.07;;;21.80;99.90;;;;;;4984142;28;20026;-75
2022/01/16 11:43:55;;;;;;;15.73;6.60;;;21.70;99.90;;;;;;4984989;28;20033;-76
2022/01/16 11:46:25;;;;;;;20.30;6.35;;;21.70;99.90;;;;;;4983465;28;20025;-74
2022/01/16 11:49:06;;;;;;;10.20;4.68;;;21.70;99.90;;;;;;4976813;28;20027;-76
2022/01/16 11:54:19;;;;;;;11.18;4.30;;;21.70;99.90;;;;;;4975457;28;20381;-75
2022/01/16 11:56:47;;;;;;;19.33;4.78;;;21.70;99.90;;;;;;4975312;28;20387;-75
2022/01/16 11:59:24;;;;;;;17.17;5.13;;;21.70;99.90;;;;;;4975174;28;20051;-75
2022/01/16 12:02:02;;;;;;;16.35;4.95;;;21.70;99.90;;;;;;4975249;28;20034;-76
2022/01/16 12:04:30;;;;;;;16.60;4.95;;;21.70;99.90;;;;;;4975416;28;20022;-74
2022/01/16 12:07:13;;;;;;;20.35;5.75;;;21.70;99.90;;;;;;4975130;28;20027;-76
2022/01/16 12:12:16;;;;;;;15.18;4.53;;;21.70;99.90;;;;;;4975205;28;20033;-76
2022/01/16 12:15:07;;;;;;;11.77;4.60;;;21.80;99.90;;;;;;4975073;28;20054;-76
2022/01/16 12:17:38;;;;;;;9.60;4.50;;;21.80;99.90;;;;;;4975113;28;20030;-74
2022/01/16 12:20:16;;;;;;;15.98;4.82;;;21.80;99.90;;;;;;4975012;28;20022;-75
2022/01/16 12:22:52;;;;;;;15.82;5.65;;;21.80;99.90;;;;;;4974985;28;20101;-76
2022/01/16 12:25:37;;;;;;;13.90;4.90;;;21.90;99.90;;;;;;4975658;28;20460;-76
2022/01/16 12:28:11;;;;;;;16.13;5.22;;;21.80;99.90;;;;;;4975112;28;20034;-75
2022/01/16 12:30:49;;;;;;;15.88;5.38;;;21.80;99.90;;;;;;4975208;28;20023;-75
2022/01/16 12:33:16;;;;;;;18.52;5.18;;;21.80;99.90;;;;;;4974939;28;20106;-74
2022/01/16 12:35:50;;;;;;;22.63;5.18;;;21.80;99.90;;;;;;4974785;28;20039;-76
2022/01/16 12:38:34;;;;;;;13.55;4.57;;;21.80;99.90;;;;;;4974939;28;20464;-75
2022/01/16 12:41:11;;;;;;;14.98;4.68;;;21.80;99.90;;;;;;4974713;28;20029;-74
2022/01/16 12:43:48;;;;;;;10.90;4.40;;;21.90;99.90;;;;;;4974354;28;20026;-75
2022/01/16 12:46:21;;;;;;;11.73;4.63;;;21.90;99.90;;;;;;4974643;28;20030;-75
2022/01/16 12:48:51;;;;;;;18.48;5.03;;;22.00;99.90;;;;;;4974549;28;20022;-76
2022/01/16 12:51:24;;;;;;;13.85;4.40;;;21.90;99.90;;;;;;4974457;28;20034;-75
2022/01/16 12:53:54;;;;;;;15.98;4.55;;;21.90;99.90;;;;;;4974550;28;20038;-75
2022/01/16 12:56:29;;;;;;;25.08;4.93;;;21.90;99.90;;;;;;4974421;28;20058;-75
2022/01/16 12:58:57;;;;;;;;;;;21.90;99.90;;;;;;4991062;28;20026;-76
2022/01/16 13:01:26;;;;;;;16.15;4.90;;;22.00;99.90;;;;;;4993729;28;19917;-73
2022/01/16 13:03:54;;;;;;;17.48;4.97;;;22.00;99.90;;;;;;4993932;28;20022;-76
2022/01/16 13:06:28;;;;;;;16.42;5.20;;;21.90;99.90;;;;;;4993849;28;20113;-75
2022/01/16 13:08:58;;;;;;;13.02;4.40;;;21.90;99.90;;;;;;4993879;28;20049;-76
2022/01/16 13:11:29;;;;;;;18.30;4.13;;;21.90;99.90;;;;;;4992171;28;20029;-76
2022/01/16 13:13:57;;;;;;;13.93;5.15;;;21.90;99.90;;;;;;4993591;28;20038;-75
2022/01/16 13:16:29;;;;;;;14.50;4.78;;;22.00;99.90;;;;;;4992527;28;20058;-73
2022/01/16 13:19:01;;;;;;;18.00;5.20;;;21.90;99.90;;;;;;4993867;28;20072;-76
2022/01/16 13:21:39;;;;;;;12.82;4.78;;;21.90;99.90;;;;;;4993300;28;20034;-75
2022/01/16 13:24:06;;;;;;;9.20;4.45;;;21.90;99.90;;;;;;4993570;28;20046;-75
2022/01/16 13:26:34;;;;;;;18.52;4.88;;;21.90;99.90;;;;;;4993697;28;20109;-75
2022/01/16 13:29:04;;;;;;;17.45;4.28;;;21.90;99.90;;;;;;4993533;28;20506;-75
2022/01/16 13:31:34;;;;;;;22.73;5.07;;;21.90;99.90;;;;;;4993649;28;20030;-75
2022/01/16 13:34:20;;;;;;;18.55;5.13;;;22.00;99.90;;;;;;4993667;28;20026;-74
2022/01/16 13:36:53;;;;;;;18.20;5.10;;;22.00;99.90;;;;;;4993867;28;20529;-75
2022/01/16 13:39:44;;;;;;;10.60;4.10;;;22.00;99.90;;;;;;4993389;28;20061;-74
2022/01/16 13:42:12;;;;;;;17.17;4.45;;;22.00;99.90;;;;;;4993400;28;20018;-75
2022/01/16 13:44:40;;;;;;;20.13;5.05;;;21.90;99.90;;;;;;4993655;28;20033;-74